createdAt,value
2022-12-31T00:00:38.833Z,50.28
2022-12-31T00:03:08.929Z,41.17
2022-12-31T00:05:37.003Z,47.47
2022-12-31T00:08:04.350Z,44.08
2022-12-31T00:10:39.230Z,46.38
2022-12-31T00:13:08.347Z,47.35
2022-12-31T00:15:36.451Z,52.20
2022-12-31T00:18:08.064Z,47.20
2022-12-31T00:20:40.292Z,44.40
2022-12-31T00:23:10.379Z,50.00
2022-12-31T00:25:38.144Z,41.85
2022-12-31T00:28:05.435Z,44.70
2022-12-31T00:30:33.819Z,48.42
2022-12-31T00:33:01.005Z,53.08
2022-12-31T00:35:28.268Z,61.25
2022-12-31T00:37:55.525Z,52.72
2022-12-31T00:40:22.757Z,56.17
2022-12-31T00:42:49.976Z,40.55
2022-12-31T00:45:17.145Z,45.10
2022-12-31T00:47:44.319Z,42.90
2022-12-31T00:50:11.449Z,36.17
2022-12-31T00:52:38.667Z,40.10
2022-12-31T00:55:06.810Z,39.05
2022-12-31T00:57:33.925Z,38.83
2022-12-31T01:00:01.454Z,41.67
2022-12-31T01:02:28.875Z,27.65
2022-12-31T01:04:56.220Z,31.70
2022-12-31T01:07:23.402Z,36.33
2022-12-31T01:09:50.635Z,32.60
2022-12-31T01:12:17.813Z,34.13
2022-12-31T01:14:45.038Z,36.15
2022-12-31T01:17:12.893Z,33.78
2022-12-31T01:19:40.442Z,34.05
2022-12-31T01:22:07.618Z,34.20
2022-12-31T01:24:34.871Z,46.53
2022-12-31T01:27:02.074Z,33.72
2022-12-31T01:29:29.643Z,35.42
2022-12-31T01:31:56.720Z,29.20
2022-12-31T01:34:23.917Z,33.20
2022-12-31T01:36:51.009Z,35.63
2022-12-31T01:39:18.335Z,36.70
2022-12-31T01:41:47.558Z,35.13
2022-12-31T01:44:26.917Z,33.35
2022-12-31T01:46:59.789Z,32.00
2022-12-31T01:49:44.154Z,34.92
2022-12-31T01:52:28.960Z,31.70
2022-12-31T01:55:09.488Z,29.33
2022-12-31T01:57:37.747Z,29.83
2022-12-31T02:00:07.020Z,34.85
2022-12-31T02:02:34.303Z,31.55
2022-12-31T02:05:06.667Z,31.35
2022-12-31T02:07:34.046Z,31.20
2022-12-31T02:10:01.817Z,32.38
2022-12-31T02:12:29.073Z,30.55
2022-12-31T02:14:57.210Z,30.98
2022-12-31T02:17:33.202Z,31.80
2022-12-31T02:20:30.716Z,33.75
2022-12-31T02:23:36.533Z,34.95
2022-12-31T02:27:09.115Z,33.58
2022-12-31T02:30:14.431Z,35.90
2022-12-31T02:33:08.059Z,33.30
2022-12-31T02:35:57.803Z,38.63
2022-12-31T02:41:02.519Z,31.55
2022-12-31T02:43:29.825Z,33.13
2022-12-31T02:46:13.058Z,37.83
2022-12-31T02:48:54.716Z,33.67
2022-12-31T02:52:13.699Z,31.77
2022-12-31T02:55:23.921Z,28.75
2022-12-31T02:58:21.074Z,27.60
2022-12-31T03:01:14.955Z,29.70
2022-12-31T03:03:42.734Z,27.85
2022-12-31T03:06:11.600Z,37.58
2022-12-31T03:09:00.969Z,33.65
2022-12-31T03:11:46.907Z,29.27
2022-12-31T03:14:14.161Z,31.40
2022-12-31T03:16:41.501Z,24.48
2022-12-31T03:19:27.418Z,25.42
2022-12-31T03:22:13.315Z,27.13
2022-12-31T03:24:59.332Z,32.92
2022-12-31T03:27:26.603Z,29.88
2022-12-31T03:29:53.867Z,27.55
2022-12-31T03:32:21.088Z,28.15
2022-12-31T03:34:48.411Z,28.55
2022-12-31T03:37:15.641Z,29.20
2022-12-31T03:39:42.790Z,31.75
2022-12-31T03:42:10.041Z,28.75
2022-12-31T03:44:37.304Z,25.08
2022-12-31T03:47:04.986Z,26.25
2022-12-31T03:49:32.133Z,26.38
2022-12-31T03:51:59.266Z,27.50
2022-12-31T03:54:26.543Z,30.83
2022-12-31T03:56:59.943Z,28.15
2022-12-31T03:59:27.574Z,27.67
2022-12-31T04:01:55.040Z,29.33
2022-12-31T04:04:22.439Z,29.77
2022-12-31T04:06:49.774Z,29.20
2022-12-31T04:09:17.053Z,25.50
2022-12-31T04:11:44.256Z,27.60
2022-12-31T04:14:11.450Z,28.02
2022-12-31T04:16:38.680Z,26.90
2022-12-31T04:19:06.397Z,27.17
2022-12-31T04:21:35.333Z,24.27
2022-12-31T04:24:03.344Z,27.27
2022-12-31T04:26:30.976Z,26.42
2022-12-31T04:28:58.778Z,26.63
2022-12-31T04:31:26.714Z,42.45
2022-12-31T04:33:54.162Z,43.15
2022-12-31T04:36:21.539Z,33.10
2022-12-31T04:38:48.807Z,30.50
2022-12-31T04:41:20.277Z,30.35
2022-12-31T04:43:53.170Z,28.15
2022-12-31T04:46:29.854Z,39.97
2022-12-31T04:48:57.690Z,30.67
2022-12-31T04:51:27.282Z,32.85
2022-12-31T04:53:54.537Z,30.42
2022-12-31T04:56:22.280Z,31.88
2022-12-31T04:58:50.065Z,29.17
2022-12-31T05:01:17.654Z,25.98
2022-12-31T05:03:45.981Z,29.80
2022-12-31T05:06:17.654Z,31.92
2022-12-31T05:08:45.855Z,27.48
2022-12-31T05:11:13.773Z,25.73
2022-12-31T05:13:41.422Z,25.85
2022-12-31T05:16:09.345Z,27.40
2022-12-31T05:18:37.489Z,30.85
2022-12-31T05:21:07.169Z,26.08
2022-12-31T05:23:34.877Z,32.45
2022-12-31T05:26:02.213Z,28.85
2022-12-31T05:28:29.435Z,31.77
2022-12-31T05:30:56.850Z,32.42
2022-12-31T05:33:24.191Z,29.67
2022-12-31T05:35:51.384Z,30.45
2022-12-31T05:38:18.542Z,28.17
2022-12-31T05:40:45.741Z,29.73
2022-12-31T05:43:14.367Z,34.33
2022-12-31T05:45:41.630Z,28.58
2022-12-31T05:48:08.998Z,32.35
2022-12-31T05:50:37.387Z,32.35
2022-12-31T05:53:04.867Z,30.85
2022-12-31T05:55:32.009Z,27.70
2022-12-31T05:57:59.370Z,32.67
2022-12-31T06:00:26.746Z,29.98
2022-12-31T06:02:54.018Z,33.63
2022-12-31T06:05:26.112Z,29.23
2022-12-31T06:07:53.836Z,29.08
2022-12-31T06:10:21.061Z,37.60
2022-12-31T06:12:48.250Z,32.08
2022-12-31T06:15:15.900Z,38.03
2022-12-31T06:17:43.071Z,32.08
2022-12-31T06:20:13.177Z,35.22
2022-12-31T06:22:40.660Z,36.63
2022-12-31T06:25:08.477Z,34.95
2022-12-31T06:27:35.711Z,42.40
2022-12-31T06:30:03.212Z,40.33
2022-12-31T06:32:31.453Z,39.22
2022-12-31T06:34:58.816Z,36.80
2022-12-31T06:37:26.710Z,37.30
2022-12-31T06:39:53.918Z,39.58
2022-12-31T06:42:21.174Z,41.33
2022-12-31T06:44:48.414Z,49.50
2022-12-31T06:47:15.631Z,47.25
2022-12-31T06:49:42.769Z,40.33
2022-12-31T06:52:10.347Z,37.63
2022-12-31T06:54:37.948Z,35.55
2022-12-31T06:57:05.708Z,41.60
2022-12-31T06:59:33.278Z,45.30
2022-12-31T07:02:18.922Z,35.30
2022-12-31T07:05:04.126Z,55.17
2022-12-31T07:07:46.240Z,54.92
2022-12-31T07:10:33.372Z,44.25
2022-12-31T07:13:30.149Z,38.78
2022-12-31T07:16:25.563Z,34.85
2022-12-31T07:19:26.594Z,42.15
2022-12-31T07:21:55.276Z,38.00
2022-12-31T07:24:22.870Z,39.35
2022-12-31T07:27:00.592Z,41.97
2022-12-31T07:30:21.329Z,49.60
2022-12-31T07:33:22.218Z,41.35
2022-12-31T07:36:18.246Z,45.42
2022-12-31T07:39:15.957Z,39.00
2022-12-31T07:42:09.613Z,34.28
2022-12-31T07:45:06.240Z,37.22
2022-12-31T07:47:33.855Z,39.63
2022-12-31T07:50:01.719Z,43.30
2022-12-31T07:52:29.164Z,41.60
2022-12-31T07:54:56.344Z,37.65
2022-12-31T07:57:35.545Z,44.60
2022-12-31T08:00:12.795Z,37.75
2022-12-31T08:03:21.159Z,40.45
2022-12-31T08:06:21.804Z,42.03
2022-12-31T08:09:20.354Z,42.20
2022-12-31T08:11:53.427Z,43.43
2022-12-31T08:14:20.836Z,40.65
2022-12-31T08:16:48.743Z,49.15
2022-12-31T08:19:30.773Z,53.10
2022-12-31T08:21:57.874Z,51.85
2022-12-31T08:24:57.954Z,51.42
2022-12-31T08:28:01.289Z,58.03
2022-12-31T08:31:00.370Z,48.15
2022-12-31T08:33:56.227Z,54.35
2022-12-31T08:37:01.010Z,49.47
2022-12-31T08:40:10.521Z,51.00
2022-12-31T08:45:45.934Z,47.42
2022-12-31T08:48:42.485Z,47.17
2022-12-31T08:51:23.043Z,44.58
2022-12-31T08:53:51.153Z,52.35
2022-12-31T08:56:44.759Z,48.63
2022-12-31T08:59:39.098Z,38.22
2022-12-31T09:03:00.690Z,36.35
2022-12-31T09:05:53.181Z,42.15
2022-12-31T09:08:38.353Z,40.53
2022-12-31T09:11:23.759Z,43.33
2022-12-31T09:14:03.190Z,38.90
2022-12-31T09:16:48.754Z,33.72
2022-12-31T09:19:16.037Z,42.65
2022-12-31T09:21:44.802Z,44.58
2022-12-31T09:24:14.914Z,41.05
2022-12-31T09:26:52.315Z,43.42
2022-12-31T09:29:55.206Z,49.45
2022-12-31T09:32:49.077Z,51.85
2022-12-31T09:35:54.881Z,55.17
2022-12-31T09:38:31.063Z,65.13
2022-12-31T09:41:01.260Z,55.28
2022-12-31T09:44:02.255Z,54.75
2022-12-31T09:47:13.388Z,67.20
2022-12-31T09:50:18.663Z,64.38
2022-12-31T09:53:12.799Z,66.22
2022-12-31T09:55:58.252Z,76.43
2022-12-31T09:59:01.170Z,56.67
2022-12-31T10:01:56.556Z,54.63
2022-12-31T10:05:07.811Z,52.13
2022-12-31T10:08:04.861Z,38.78
2022-12-31T10:11:05.626Z,35.20
2022-12-31T10:14:02.438Z,57.22
2022-12-31T10:16:59.002Z,47.65
2022-12-31T10:20:05.595Z,40.00
2022-12-31T10:23:13.159Z,39.08
2022-12-31T10:26:18.791Z,50.00
2022-12-31T10:29:02.878Z,32.88
2022-12-31T10:31:38.821Z,39.78
2022-12-31T10:34:42.762Z,35.60
2022-12-31T10:37:18.140Z,37.60
2022-12-31T10:40:13.676Z,43.90
2022-12-31T10:43:11.000Z,39.28
2022-12-31T10:46:22.859Z,37.33
2022-12-31T10:49:15.455Z,29.42
2022-12-31T10:52:09.655Z,34.40
2022-12-31T10:54:55.158Z,29.13
2022-12-31T10:57:52.757Z,31.42
2022-12-31T11:00:26.839Z,28.05
2022-12-31T11:03:29.367Z,32.55
2022-12-31T11:06:26.884Z,18.25
2022-12-31T11:09:16.706Z,16.27
2022-12-31T11:12:09.213Z,14.80
2022-12-31T11:14:58.652Z,10.45
2022-12-31T11:17:56.450Z,9.95
2022-12-31T11:21:28.291Z,7.68
2022-12-31T11:24:14.448Z,8.30
2022-12-31T11:26:59.635Z,16.27
2022-12-31T11:30:03.390Z,14.65
2022-12-31T11:33:12.715Z,17.65
2022-12-31T11:38:43.114Z,14.07
2022-12-31T11:41:45.745Z,14.90
2022-12-31T11:44:47.809Z,31.67
2022-12-31T11:48:03.996Z,10.68
2022-12-31T11:51:00.901Z,21.30
2022-12-31T11:53:57.009Z,10.93
2022-12-31T11:56:39.703Z,15.43
2022-12-31T11:59:19.020Z,14.07
2022-12-31T12:02:21.065Z,11.88
2022-12-31T12:04:52.139Z,15.43
2022-12-31T12:07:20.516Z,11.90
2022-12-31T12:09:48.489Z,7.30
2022-12-31T12:12:15.882Z,11.18
2022-12-31T12:14:48.915Z,15.57
2022-12-31T12:17:31.904Z,27.15
2022-12-31T12:20:16.423Z,26.90
2022-12-31T12:22:56.681Z,16.30
2022-12-31T12:25:35.699Z,10.23
2022-12-31T12:28:45.354Z,11.05
2022-12-31T12:33:51.503Z,14.88
2022-12-31T12:38:47.585Z,12.40
2022-12-31T12:41:25.872Z,14.40
2022-12-31T12:44:16.073Z,10.18
2022-12-31T12:46:51.955Z,9.25
2022-12-31T12:49:37.065Z,10.07
2022-12-31T12:53:02.107Z,9.80
2022-12-31T12:55:59.336Z,12.88
2022-12-31T12:58:56.949Z,9.63
2022-12-31T13:01:38.537Z,9.98
2022-12-31T13:04:49.550Z,9.98
2022-12-31T13:10:57.563Z,13.45
2022-12-31T13:13:45.919Z,9.55
2022-12-31T13:17:11.678Z,7.18
2022-12-31T13:20:10.829Z,13.90
2022-12-31T13:25:51.186Z,11.43
2022-12-31T13:28:19.893Z,8.95
2022-12-31T13:31:01.743Z,11.65
2022-12-31T13:34:02.568Z,7.10
2022-12-31T13:36:32.351Z,11.90
2022-12-31T13:39:04.789Z,14.15
2022-12-31T13:42:11.107Z,13.02
2022-12-31T13:45:02.278Z,13.50
2022-12-31T13:47:34.612Z,7.90
2022-12-31T13:50:16.811Z,11.23
2022-12-31T13:53:42.572Z,16.25
2022-12-31T13:56:25.245Z,11.80
2022-12-31T13:59:21.877Z,18.75
2022-12-31T14:02:35.046Z,9.95
2022-12-31T14:05:11.325Z,11.52
2022-12-31T14:07:54.669Z,11.55
2022-12-31T14:10:47.841Z,12.85
2022-12-31T14:14:06.237Z,15.02
2022-12-31T14:16:55.981Z,15.48
2022-12-31T14:19:51.344Z,13.20
2022-12-31T14:23:17.351Z,9.98
2022-12-31T14:25:52.099Z,22.05
2022-12-31T14:28:41.699Z,16.65
2022-12-31T14:31:47.463Z,18.70
2022-12-31T14:34:33.169Z,14.32
2022-12-31T14:37:27.453Z,16.95
2022-12-31T14:40:24.919Z,14.50
2022-12-31T14:43:19.925Z,18.40
2022-12-31T14:46:15.718Z,16.58
2022-12-31T14:49:30.698Z,20.08
2022-12-31T14:52:19.022Z,80.63
2022-12-31T14:54:56.383Z,134.23
2022-12-31T14:57:47.467Z,203.45
2022-12-31T15:00:37.606Z,159.32
2022-12-31T15:03:13.784Z,68.70
2022-12-31T15:06:01.277Z,36.92
2022-12-31T15:09:21.993Z,32.90
2022-12-31T15:12:09.843Z,24.40
2022-12-31T15:14:58.178Z,21.55
2022-12-31T15:17:53.354Z,18.88
2022-12-31T15:21:02.223Z,25.50
2022-12-31T15:23:38.797Z,19.85
2022-12-31T15:26:07.923Z,27.38
2022-12-31T15:28:38.750Z,48.38
2022-12-31T15:31:20.524Z,36.72
2022-12-31T15:34:05.985Z,23.27
2022-12-31T15:36:39.000Z,42.40
2022-12-31T15:39:35.808Z,40.03
2022-12-31T15:42:36.792Z,60.53
2022-12-31T15:45:05.539Z,40.15
2022-12-31T15:47:42.578Z,38.03
2022-12-31T15:50:20.479Z,38.63
2022-12-31T15:52:59.429Z,59.90
2022-12-31T15:55:53.161Z,70.88
2022-12-31T15:58:29.489Z,38.58
2022-12-31T16:01:20.295Z,81.57
2022-12-31T16:04:05.253Z,47.88
2022-12-31T16:06:37.595Z,63.97
2022-12-31T16:09:21.870Z,72.38
2022-12-31T16:11:50.244Z,60.13
2022-12-31T16:14:37.031Z,69.38
2022-12-31T16:17:05.755Z,91.03
2022-12-31T16:19:43.971Z,92.32
2022-12-31T16:22:17.963Z,89.53
2022-12-31T16:25:28.325Z,92.15
2022-12-31T16:27:40.526Z,78.57
2022-12-31T16:30:20.324Z,69.38
2022-12-31T16:32:50.374Z,68.78
2022-12-31T16:35:33.408Z,71.32
2022-12-31T16:38:22.561Z,74.38
2022-12-31T16:41:02.002Z,60.92
2022-12-31T16:46:18.975Z,68.35
2022-12-31T16:48:57.656Z,69.82
2022-12-31T16:51:32.533Z,68.57
2022-12-31T16:54:01.993Z,72.35
2022-12-31T16:59:28.210Z,87.80
2022-12-31T17:02:01.213Z,72.50
2022-12-31T17:07:25.549Z,195.05
2022-12-31T17:10:07.957Z,241.85
2022-12-31T17:13:25.075Z,265.70
2022-12-31T17:15:42.024Z,222.40
2022-12-31T17:18:19.751Z,155.50
2022-12-31T17:20:50.365Z,127.88
2022-12-31T17:23:30.971Z,147.52
2022-12-31T17:26:09.529Z,106.55
2022-12-31T17:28:46.785Z,86.03
2022-12-31T17:31:40.173Z,88.47
2022-12-31T17:34:13.272Z,97.35
2022-12-31T17:36:56.927Z,96.35
2022-12-31T17:39:25.881Z,98.07
2022-12-31T17:41:56.942Z,106.15
2022-12-31T17:44:28.214Z,80.20
2022-12-31T17:46:55.613Z,79.78
2022-12-31T17:49:29.040Z,78.18
2022-12-31T17:51:56.270Z,90.93
2022-12-31T17:54:23.633Z,83.13
2022-12-31T17:56:52.230Z,118.13
2022-12-31T17:59:29.005Z,167.97
2022-12-31T18:02:02.223Z,106.85
2022-12-31T18:04:29.463Z,136.38
2022-12-31T18:06:56.681Z,138.73
2022-12-31T18:09:24.009Z,135.32
2022-12-31T18:11:54.297Z,119.88
2022-12-31T18:14:22.839Z,137.70
2022-12-31T18:16:50.078Z,134.27
2022-12-31T18:19:45.837Z,116.47
2022-12-31T18:22:04.374Z,86.25
2022-12-31T18:24:31.669Z,89.30
2022-12-31T18:26:58.910Z,99.53
2022-12-31T18:29:26.053Z,159.30
2022-12-31T18:31:53.456Z,195.23
2022-12-31T18:34:20.754Z,281.63
2022-12-31T18:36:47.943Z,252.95
2022-12-31T18:39:15.199Z,145.85
2022-12-31T18:41:48.492Z,98.97
2022-12-31T18:44:15.967Z,94.18
2022-12-31T18:46:43.240Z,77.25
2022-12-31T18:49:10.665Z,77.53
2022-12-31T18:51:37.783Z,67.63
2022-12-31T18:54:06.298Z,71.43
2022-12-31T18:56:33.461Z,60.78
2022-12-31T18:59:02.029Z,63.67
2022-12-31T19:01:36.337Z,89.83
2022-12-31T19:04:26.531Z,68.93
2022-12-31T19:06:55.968Z,82.63
2022-12-31T19:09:45.210Z,75.80
2022-12-31T19:12:14.692Z,82.03
2022-12-31T19:14:42.316Z,86.72
2022-12-31T19:19:36.233Z,82.03
2022-12-31T19:22:03.452Z,101.20
2022-12-31T19:24:31.346Z,140.95
2022-12-31T19:27:01.207Z,100.47
2022-12-31T19:29:28.745Z,95.90
2022-12-31T19:31:57.387Z,84.88
2022-12-31T19:34:24.702Z,99.45
2022-12-31T19:36:51.985Z,101.80
2022-12-31T19:39:20.893Z,101.72
2022-12-31T19:41:54.724Z,97.20
2022-12-31T19:44:26.032Z,95.35
2022-12-31T19:46:53.360Z,97.07
2022-12-31T19:49:20.773Z,99.90
2022-12-31T19:51:48.054Z,112.18
2022-12-31T19:54:15.375Z,117.05
2022-12-31T19:56:42.651Z,143.20
2022-12-31T19:59:10.661Z,129.48
2022-12-31T20:01:38.446Z,130.63
2022-12-31T20:04:05.989Z,124.47
2022-12-31T20:06:33.348Z,152.00
2022-12-31T20:09:01.844Z,113.38
2022-12-31T20:11:29.145Z,110.50
2022-12-31T20:13:56.367Z,141.25
2022-12-31T20:16:26.148Z,169.32
2022-12-31T20:18:53.482Z,162.73
2022-12-31T20:21:27.194Z,121.22
2022-12-31T20:23:55.063Z,93.07
2022-12-31T20:26:24.243Z,89.25
2022-12-31T20:28:52.828Z,123.13
2022-12-31T20:31:24.227Z,112.53
2022-12-31T20:33:53.506Z,104.72
2022-12-31T20:36:21.446Z,101.28
2022-12-31T20:38:48.901Z,101.90
2022-12-31T20:41:22.321Z,100.78
2022-12-31T20:43:50.676Z,101.30
2022-12-31T20:46:21.750Z,96.95
2022-12-31T20:48:51.260Z,108.30
2022-12-31T20:51:19.837Z,101.32
2022-12-31T20:53:54.856Z,104.73
2022-12-31T20:56:24.158Z,99.00
2022-12-31T20:58:54.054Z,99.25
2022-12-31T21:01:22.546Z,98.05
2022-12-31T21:04:06.847Z,114.03
2022-12-31T21:06:35.479Z,99.93
2022-12-31T21:09:06.845Z,99.97
2022-12-31T21:11:53.866Z,95.25
2022-12-31T21:14:21.349Z,96.25
2022-12-31T21:16:48.602Z,97.05
2022-12-31T21:19:15.933Z,103.80
2022-12-31T21:21:43.210Z,102.68
2022-12-31T21:24:10.603Z,96.13
2022-12-31T21:26:37.783Z,111.88
2022-12-31T21:29:05.106Z,118.88
2022-12-31T21:31:32.429Z,116.35
2022-12-31T21:33:59.659Z,118.00
2022-12-31T21:36:27.020Z,111.68
2022-12-31T21:38:54.211Z,118.38
2022-12-31T21:41:40.333Z,113.85
2022-12-31T21:44:07.536Z,116.25
2022-12-31T21:46:34.841Z,112.10
2022-12-31T21:49:02.404Z,100.35
2022-12-31T21:51:29.778Z,107.28
2022-12-31T21:53:57.600Z,104.03
2022-12-31T21:56:25.396Z,100.53
2022-12-31T21:59:16.600Z,93.60
2022-12-31T22:02:02.932Z,111.47
2022-12-31T22:07:17.499Z,314.98
2022-12-31T22:09:44.731Z,414.30
2022-12-31T22:12:11.966Z,497.88
2022-12-31T22:14:39.139Z,602.58
2022-12-31T22:17:26.287Z,551.00
2022-12-31T22:20:25.329Z,471.45
2022-12-31T22:22:40.652Z,410.98
2022-12-31T22:25:08.545Z,416.27
2022-12-31T22:27:35.748Z,406.88
2022-12-31T22:30:03.430Z,314.05
2022-12-31T22:32:30.616Z,316.73
2022-12-31T22:34:57.805Z,339.40
2022-12-31T22:37:55.833Z,282.00
2022-12-31T22:40:12.332Z,291.13
2022-12-31T22:42:39.723Z,298.73
2022-12-31T22:45:08.526Z,257.73
2022-12-31T22:47:35.847Z,205.13
2022-12-31T22:50:03.295Z,228.18
2022-12-31T22:52:30.934Z,245.50
2022-12-31T22:54:58.087Z,225.43
2022-12-31T22:57:25.301Z,188.35
2022-12-31T22:59:52.637Z,171.20
2022-12-31T23:02:19.790Z,201.75
2022-12-31T23:04:46.940Z,214.23
2022-12-31T23:07:14.174Z,223.82
2022-12-31T23:10:00.255Z,212.68
2022-12-31T23:12:27.585Z,186.82
2022-12-31T23:15:13.657Z,210.45
2022-12-31T23:17:59.592Z,211.70
2022-12-31T23:20:45.540Z,210.13
2022-12-31T23:23:15.744Z,230.95
2022-12-31T23:25:49.925Z,215.60
2022-12-31T23:28:24.106Z,221.45
2022-12-31T23:30:52.275Z,236.82
2022-12-31T23:33:24.957Z,261.98
2022-12-31T23:36:05.929Z,279.90
2022-12-31T23:38:33.174Z,269.90
2022-12-31T23:41:00.527Z,239.60
2022-12-31T23:43:27.812Z,228.02
2022-12-31T23:45:55.276Z,244.75
2022-12-31T23:48:22.744Z,248.77
2022-12-31T23:50:54.507Z,234.02
2022-12-31T23:53:23.287Z,225.75
2022-12-31T23:55:52.022Z,214.07
2022-12-31T23:58:20.455Z,218.83
